Time;durP1;ratioP1;P1;durP2;ratioP2;P2;SDS_P1;SDS_P2;PMS_P1;PMS_P2;Temp;Humidity;BMP_temperature;BMP_pressure;BME280_temperature;BME280_humidity;BME280_pressure;Samples;Min_cycle;Max_cycle;Signal;HPM_P1;HPM_P2
2023/02/12 00:00:08;;;;;;;20.33;11.87;;;7.30;99.90;;;;;;5036475;28;20223;-70
2023/02/12 00:02:40;;;;;;;20.33;11.40;;;7.30;99.90;;;;;;5046415;28;20223;-70
2023/02/12 00:05:06;;;;;;;18.67;10.60;;;7.30;99.90;;;;;;5043967;28;20475;-70
2023/02/12 00:07:32;;;;;;;20.43;11.07;;;7.30;99.90;;;;;;5035259;28;20310;-70
2023/02/12 00:09:58;;;;;;;20.33;11.53;;;7.30;99.90;;;;;;5042881;28;20538;-71
2023/02/12 00:12:23;;;;;;;15.83;10.03;;;7.30;99.90;;;;;;5043309;28;20386;-70
2023/02/12 00:14:49;;;;;;;21.70;12.17;;;7.30;99.90;;;;;;5037386;28;20333;-68
2023/02/12 00:17:14;;;;;;;22.47;12.30;;;7.30;99.90;;;;;;5042502;28;20733;-70
2023/02/12 00:19:40;;;;;;;23.87;12.33;;;7.30;99.90;;;;;;5028192;28;20763;-71
2023/02/12 00:22:06;;;;;;;24.13;12.50;;;7.30;99.90;;;;;;5030294;28;20257;-70
2023/02/12 00:24:31;;;;;;;21.00;12.17;;;7.30;99.90;;;;;;5031635;28;20393;-69
2023/02/12 00:26:57;;;;;;;23.30;11.43;;;7.30;99.90;;;;;;5037321;28;20235;-69
2023/02/12 00:29:23;;;;;;;22.00;11.37;;;7.30;99.90;;;;;;5042063;28;20682;-71
2023/02/12 00:31:48;;;;;;;18.00;10.23;;;7.30;99.90;;;;;;5050360;28;20231;-68
2023/02/12 00:34:14;;;;;;;21.10;11.10;;;7.30;99.90;;;;;;5043718;28;20218;-69
2023/02/12 00:36:40;;;;;;;22.70;11.07;;;7.30;99.90;;;;;;5039605;28;20228;-68
2023/02/12 00:39:05;;;;;;;18.03;10.37;;;7.30;99.90;;;;;;5012298;28;20216;-70
2023/02/12 00:41:31;;;;;;;20.47;10.80;;;7.30;99.90;;;;;;5035178;28;20234;-70
2023/02/12 00:43:57;;;;;;;19.83;10.73;;;7.40;99.90;;;;;;5034490;28;20246;-69
2023/02/12 00:46:23;;;;;;;20.57;10.90;;;7.40;99.90;;;;;;5041911;28;20268;-70
2023/02/12 00:48:48;;;;;;;23.00;12.50;;;7.30;99.90;;;;;;5015756;28;20219;-69
2023/02/12 00:51:17;;;;;;;19.47;12.27;;;7.30;99.90;;;;;;5018040;28;20226;-70
2023/02/12 00:53:43;;;;;;;18.47;11.57;;;7.30;99.90;;;;;;5028098;28;20457;-71
2023/02/12 00:56:08;;;;;;;20.53;12.57;;;7.30;99.90;;;;;;5040654;28;20229;-70
2023/02/12 00:58:34;;;;;;;21.50;11.83;;;7.30;99.90;;;;;;5042058;28;20242;-70
2023/02/12 01:01:00;;;;;;;21.17;11.00;;;7.30;99.90;;;;;;5043451;28;20226;-70
2023/02/12 01:03:26;;;;;;;17.33;10.40;;;7.30;99.90;;;;;;5026228;28;20593;-69
2023/02/12 01:05:52;;;;;;;23.17;12.13;;;7.30;99.90;;;;;;5033076;28;20227;-70
2023/02/12 01:08:19;;;;;;;21.97;10.90;;;7.30;99.90;;;;;;5033095;28;20466;-69
2023/02/12 01:10:54;;;;;;;19.60;11.27;;;7.30;99.90;;;;;;5024399;28;20496;-69
2023/02/12 01:13:20;;;;;;;28.20;11.07;;;7.30;99.90;;;;;;5022707;28;20223;-70
2023/02/12 01:15:46;;;;;;;27.13;13.10;;;7.30;99.90;;;;;;5016141;28;20843;-70
2023/02/12 01:18:13;;;;;;;19.80;10.90;;;7.30;99.90;;;;;;5041882;28;20523;-70
2023/02/12 01:20:39;;;;;;;19.43;10.07;;;7.30;99.90;;;;;;5022353;28;21166;-70
2023/02/12 01:23:05;;;;;;;22.00;12.27;;;7.10;99.90;;;;;;5035399;28;20467;-70
2023/02/12 01:25:31;;;;;;;22.50;11.93;;;7.00;99.90;;;;;;5019768;28;20492;-69
2023/02/12 01:27:57;;;;;;;19.10;10.13;;;7.00;99.90;;;;;;5039851;28;20473;-69
2023/02/12 01:30:23;;;;;;;27.07;11.90;;;6.90;99.90;;;;;;5020056;28;20238;-71
2023/02/12 01:32:50;;;;;;;19.50;10.87;;;7.00;99.90;;;;;;5040715;28;20233;-68
2023/02/12 01:35:16;;;;;;;21.60;11.50;;;7.10;99.90;;;;;;5049543;28;20465;-70
2023/02/12 01:37:41;;;;;;;20.17;10.60;;;7.10;99.90;;;;;;5045848;28;20210;-68
2023/02/12 01:40:12;;;;;;;24.60;12.00;;;7.20;99.90;;;;;;5033503;28;20593;-70
2023/02/12 01:42:39;;;;;;;18.87;11.07;;;7.20;99.90;;;;;;5039535;28;20241;-70
2023/02/12 01:45:13;;;;;;;20.80;11.10;;;7.20;99.90;;;;;;5030052;28;20497;-70
2023/02/12 01:47:44;;;;;;;17.87;10.90;;;7.10;99.90;;;;;;5046967;28;20460;-70
2023/02/12 01:50:14;;;;;;;19.50;10.77;;;7.00;99.90;;;;;;5048660;28;20469;-69
2023/02/12 01:52:44;;;;;;;16.77;10.97;;;7.00;99.90;;;;;;5044703;28;20461;-69
2023/02/12 01:55:10;;;;;;;20.57;11.33;;;7.00;99.90;;;;;;5047719;28;20948;-69
2023/02/12 01:57:41;;;;;;;23.80;12.40;;;7.00;99.90;;;;;;5045493;28;21054;-69
2023/02/12 02:00:11;;;;;;;21.57;13.03;;;7.00;99.90;;;;;;5045291;28;20474;-68
2023/02/12 02:02:45;;;;;;;20.33;12.00;;;6.90;99.90;;;;;;5047541;28;20800;-70
2023/02/12 02:05:21;;;;;;;21.80;11.80;;;6.90;99.90;;;;;;5048934;28;20898;-69
2023/02/12 02:07:47;;;;;;;26.07;12.57;;;6.90;99.90;;;;;;5046639;28;20827;-69
2023/02/12 02:10:12;;;;;;;19.00;11.40;;;6.90;99.90;;;;;;5030106;28;20845;-68
2023/02/12 02:15:25;;;;;;;19.57;10.53;;;7.00;99.90;;;;;;5047029;28;20315;-69
2023/02/12 02:18:01;;;;;;;17.30;10.73;;;7.10;99.90;;;;;;5032771;28;20507;-68
2023/02/12 02:20:54;;;;;;;17.30;10.07;;;7.10;99.90;;;;;;5043999;28;20828;-68
2023/02/12 02:23:50;;;;;;;18.57;10.10;;;7.20;99.90;;;;;;5044627;28;20484;-69
2023/02/12 02:26:58;;;;;;;19.77;10.53;;;7.20;99.90;;;;;;5050231;28;20464;-68
2023/02/12 02:30:03;;;;;;;20.27;10.30;;;7.20;99.90;;;;;;5053557;28;20461;-69
2023/02/12 02:32:34;;;;;;;22.07;10.57;;;7.20;99.90;;;;;;5043954;28;20493;-68
2023/02/12 02:35:03;;;;;;;18.63;11.53;;;7.20;99.90;;;;;;5041912;28;20457;-69
2023/02/12 02:37:42;;;;;;;18.40;11.10;;;7.20;99.90;;;;;;5024035;28;20469;-69
2023/02/12 02:40:19;;;;;;;17.50;10.00;;;7.20;99.90;;;;;;5061735;28;20452;-70
2023/02/12 02:42:59;;;;;;;18.63;10.13;;;7.20;99.90;;;;;;5040855;28;20460;-68
2023/02/12 02:45:41;;;;;;;16.93;9.77;;;7.20;99.90;;;;;;5048458;28;20469;-68
2023/02/12 02:48:19;;;;;;;23.13;11.00;;;7.20;99.90;;;;;;5035330;28;20478;-68
2023/02/12 02:51:05;;;;;;;22.47;11.17;;;7.20;99.90;;;;;;5050076;28;20460;-68
2023/02/12 02:53:43;;;;;;;23.30;12.07;;;7.20;99.90;;;;;;5031411;28;20481;-68
2023/02/12 02:56:14;;;;;;;21.10;12.00;;;7.20;99.90;;;;;;5048717;28;20483;-69
2023/02/12 02:58:48;;;;;;;19.70;10.90;;;7.10;99.90;;;;;;5048308;28;20453;-69
2023/02/12 03:01:18;;;;;;;21.53;12.50;;;7.10;99.90;;;;;;5034983;28;20526;-68
2023/02/12 03:03:56;;;;;;;17.23;10.17;;;7.10;99.90;;;;;;5054789;28;20484;-69
2023/02/12 03:06:31;;;;;;;18.90;10.00;;;7.10;99.90;;;;;;5049317;28;20506;-68
2023/02/12 03:09:04;;;;;;;19.90;11.17;;;7.20;99.90;;;;;;5033216;28;20481;-68
2023/02/12 03:11:32;;;;;;;21.30;11.70;;;7.20;99.90;;;;;;5053710;28;20485;-68
2023/02/12 03:14:19;;;;;;;18.67;10.97;;;7.20;99.90;;;;;;5055729;28;20480;-68
2023/02/12 03:16:59;;;;;;;20.07;12.00;;;7.10;99.90;;;;;;5032795;28;20464;-68
2023/02/12 03:19:31;;;;;;;20.80;12.80;;;7.20;99.90;;;;;;5035747;28;20531;-68
2023/02/12 03:22:01;;;;;;;21.43;11.33;;;7.20;99.90;;;;;;5046149;28;20849;-68
2023/02/12 03:24:39;;;;;;;18.37;11.00;;;7.10;99.90;;;;;;5048198;28;20492;-68
2023/02/12 03:27:14;;;;;;;20.30;11.77;;;7.10;99.90;;;;;;5053489;28;20502;-69
2023/02/12 03:29:39;;;;;;;24.27;12.90;;;7.10;99.90;;;;;;5045325;28;20465;-69
2023/02/12 03:32:46;;;;;;;21.77;11.57;;;7.20;99.90;;;;;;5052260;28;21040;-68
2023/02/12 03:35:30;;;;;;;20.07;11.40;;;7.10;99.90;;;;;;5054131;28;20262;-68
2023/02/12 03:38:25;;;;;;;21.07;11.60;;;7.20;99.90;;;;;;5051436;28;20508;-69
2023/02/12 03:41:19;;;;;;;20.73;11.17;;;7.20;99.90;;;;;;5053368;28;20468;-70
2023/02/12 03:43:49;;;;;;;21.20;11.43;;;7.10;99.90;;;;;;5054745;28;20561;-69
2023/02/12 03:46:37;;;;;;;21.40;13.07;;;7.00;99.90;;;;;;5054672;28;20475;-68
2023/02/12 03:49:36;;;;;;;25.30;13.03;;;6.80;99.90;;;;;;5054234;28;20531;-69
2023/02/12 03:52:03;;;;;;;28.13;12.40;;;6.60;99.90;;;;;;5055841;28;20560;-68
2023/02/12 03:54:28;;;;;;;25.70;13.93;;;6.50;99.90;;;;;;5046341;28;20535;-68
2023/02/12 03:57:02;;;;;;;26.70;13.27;;;6.50;99.90;;;;;;5049507;28;20473;-68
2023/02/12 03:59:29;;;;;;;20.73;12.90;;;6.50;99.90;;;;;;5050214;28;20686;-68
2023/02/12 04:01:57;;;;;;;31.50;15.07;;;6.50;99.90;;;;;;5055248;28;20469;-69
2023/02/12 04:04:24;;;;;;;27.67;12.43;;;6.60;99.90;;;;;;5049021;28;20538;-69
2023/02/12 04:06:52;;;;;;;28.67;13.47;;;6.80;99.90;;;;;;5035617;28;20502;-69
2023/02/12 04:09:19;;;;;;;22.50;12.27;;;6.90;99.90;;;;;;5054193;28;20468;-68
2023/02/12 04:11:49;;;;;;;25.07;13.20;;;6.90;99.90;;;;;;5056629;28;20467;-70
2023/02/12 04:14:43;;;;;;;23.97;12.60;;;6.90;99.90;;;;;;5048799;28;20472;-68
2023/02/12 04:17:23;;;;;;;26.70;12.90;;;7.00;99.90;;;;;;5036831;28;20469;-69
2023/02/12 04:20:22;;;;;;;21.87;11.87;;;7.10;99.90;;;;;;5054188;28;20492;-68
2023/02/12 04:22:56;;;;;;;22.93;10.83;;;7.10;99.90;;;;;;5047306;28;20886;-68
2023/02/12 04:25:31;;;;;;;19.50;11.40;;;7.10;99.90;;;;;;5028224;28;20492;-69
2023/02/12 04:28:15;;;;;;;31.20;11.93;;;7.20;99.90;;;;;;5033720;28;20608;-68
2023/02/12 04:30:53;;;;;;;22.40;12.10;;;7.20;99.90;;;;;;5046401;28;20463;-68
2023/02/12 04:33:22;;;;;;;16.47;10.43;;;7.20;99.90;;;;;;5045868;28;20477;-70
2023/02/12 04:35:50;;;;;;;17.27;11.07;;;7.20;99.90;;;;;;5052862;28;20476;-69
2023/02/12 04:38:29;;;;;;;20.17;10.80;;;7.20;99.90;;;;;;5050838;28;20484;-68
2023/02/12 04:40:55;;;;;;;19.77;11.43;;;7.20;99.90;;;;;;5048223;28;20523;-69
2023/02/12 04:43:28;;;;;;;26.20;11.80;;;7.20;99.90;;;;;;5048310;28;21125;-68
2023/02/12 04:45:53;;;;;;;18.27;11.20;;;7.20;99.90;;;;;;5030926;28;20978;-69
2023/02/12 04:48:19;;;;;;;26.13;13.00;;;7.20;99.90;;;;;;5047583;28;20476;-69
2023/02/12 04:50:45;;;;;;;21.80;12.80;;;7.30;99.90;;;;;;5029338;28;20231;-69
2023/02/12 04:53:11;;;;;;;22.30;12.17;;;7.30;99.90;;;;;;5050233;28;20770;-68
2023/02/12 04:55:37;;;;;;;21.13;13.00;;;7.30;99.90;;;;;;5047693;28;20472;-68
2023/02/12 04:58:03;;;;;;;22.80;12.30;;;7.30;99.90;;;;;;5044955;28;20218;-70
2023/02/12 05:00:29;;;;;;;25.30;13.03;;;7.30;99.90;;;;;;5043024;28;20286;-69
2023/02/12 05:02:54;;;;;;;21.23;12.07;;;7.30;99.90;;;;;;5027201;28;20592;-68
2023/02/12 05:05:20;;;;;;;22.80;12.07;;;7.30;99.90;;;;;;5053377;28;20721;-70
2023/02/12 05:07:46;;;;;;;23.83;12.50;;;7.20;99.90;;;;;;5035043;28;20249;-69
2023/02/12 05:10:11;;;;;;;28.70;14.63;;;7.30;99.90;;;;;;5048692;28;20222;-68
2023/02/12 05:12:37;;;;;;;24.87;12.70;;;7.30;99.90;;;;;;5050058;28;20705;-69
2023/02/12 05:15:03;;;;;;;28.07;11.13;;;7.30;99.90;;;;;;5043046;28;20277;-68
2023/02/12 05:17:28;;;;;;;24.07;12.80;;;7.30;99.90;;;;;;5035672;28;20222;-67
2023/02/12 05:19:54;;;;;;;20.10;12.03;;;7.30;99.90;;;;;;5027947;28;20236;-69
2023/02/12 05:22:20;;;;;;;23.47;12.73;;;7.30;99.90;;;;;;5031395;28;20215;-71
2023/02/12 05:24:45;;;;;;;24.67;12.53;;;7.30;99.90;;;;;;5047190;28;20246;-68
2023/02/12 05:27:12;;;;;;;20.10;11.77;;;7.30;99.90;;;;;;5052866;28;20293;-68
2023/02/12 05:29:37;;;;;;;23.60;12.90;;;7.30;99.90;;;;;;5027155;28;20238;-69
2023/02/12 05:32:03;;;;;;;15.63;10.83;;;7.30;99.90;;;;;;5051216;28;20501;-68
2023/02/12 05:34:29;;;;;;;20.80;12.40;;;7.30;99.90;;;;;;5032361;28;20230;-69
2023/02/12 05:36:55;;;;;;;23.03;13.87;;;7.30;99.90;;;;;;5054136;28;20600;-69
2023/02/12 05:39:21;;;;;;;25.17;12.70;;;7.30;99.90;;;;;;5046681;28;20218;-70
2023/02/12 05:41:47;;;;;;;25.70;14.40;;;7.30;99.90;;;;;;5034388;28;20218;-68
2023/02/12 05:44:13;;;;;;;21.20;13.50;;;7.30;99.90;;;;;;5048984;28;20489;-68
2023/02/12 05:46:40;;;;;;;29.20;13.77;;;7.30;99.90;;;;;;5049165;28;20678;-69
2023/02/12 05:49:06;;;;;;;21.57;12.50;;;7.30;99.90;;;;;;5047542;28;20980;-69
2023/02/12 05:51:32;;;;;;;24.83;13.50;;;7.30;99.90;;;;;;5043463;28;20476;-69
2023/02/12 05:54:02;;;;;;;24.10;12.60;;;7.30;99.90;;;;;;5031030;28;20475;-68
2023/02/12 05:56:36;;;;;;;25.97;13.80;;;7.30;99.90;;;;;;5044448;28;20486;-68
2023/02/12 05:59:02;;;;;;;20.57;12.57;;;7.30;99.90;;;;;;5052500;28;20469;-70
2023/02/12 06:01:32;;;;;;;23.00;12.50;;;7.30;99.90;;;;;;5047278;28;20476;-68
2023/02/12 06:03:59;;;;;;;25.27;14.80;;;7.30;99.90;;;;;;5054423;28;20226;-69
2023/02/12 06:06:26;;;;;;;27.00;14.57;;;7.20;99.90;;;;;;5045120;28;20481;-69
2023/02/12 06:08:52;;;;;;;33.13;15.30;;;7.30;99.90;;;;;;5051235;28;20503;-68
2023/02/12 06:11:19;;;;;;;27.63;14.43;;;7.20;99.90;;;;;;5049216;28;20461;-69
2023/02/12 06:13:45;;;;;;;28.10;14.37;;;7.30;99.90;;;;;;5031731;28;20251;-69
2023/02/12 06:16:23;;;;;;;23.60;13.67;;;7.20;99.90;;;;;;5048636;28;20470;-68
2023/02/12 06:18:50;;;;;;;27.63;14.23;;;7.20;99.90;;;;;;5042264;28;20466;-68
2023/02/12 06:21:17;;;;;;;29.63;14.90;;;7.20;99.90;;;;;;5054452;28;20507;-68
2023/02/12 06:23:43;;;;;;;23.67;14.57;;;7.20;99.90;;;;;;5050225;28;20504;-69
2023/02/12 06:26:09;;;;;;;27.27;15.33;;;7.20;99.90;;;;;;5062548;28;20502;-70
2023/02/12 06:28:35;;;;;;;21.80;13.20;;;7.20;99.90;;;;;;5055193;28;20476;-68
2023/02/12 06:31:01;;;;;;;31.07;16.30;;;7.20;99.90;;;;;;5051157;28;20222;-69
2023/02/12 06:33:27;;;;;;;25.23;14.50;;;7.20;99.90;;;;;;5038071;28;20215;-69
2023/02/12 06:35:53;;;;;;;20.57;12.03;;;7.10;99.90;;;;;;5023619;28;20460;-69
2023/02/12 06:38:18;;;;;;;24.70;13.20;;;7.00;99.90;;;;;;5035281;28;21043;-69
2023/02/12 06:40:44;;;;;;;19.70;11.60;;;7.00;99.90;;;;;;5030619;28;20228;-69
2023/02/12 06:43:10;;;;;;;23.17;12.97;;;7.10;99.90;;;;;;5043146;28;20317;-69
2023/02/12 06:45:35;;;;;;;25.70;12.77;;;7.10;99.90;;;;;;5057345;28;20690;-68
2023/02/12 06:48:01;;;;;;;22.13;12.00;;;7.10;99.90;;;;;;5036657;28;20690;-68
2023/02/12 06:50:27;;;;;;;28.40;12.70;;;7.10;99.90;;;;;;5054352;28;20278;-68
2023/02/12 06:52:53;;;;;;;23.20;11.87;;;7.10;99.90;;;;;;5056556;28;20218;-68
2023/02/12 06:55:18;;;;;;;21.53;12.60;;;7.10;99.90;;;;;;5048672;28;20472;-69
2023/02/12 06:57:44;;;;;;;30.93;14.60;;;7.10;99.90;;;;;;5031482;28;20248;-67
2023/02/12 07:00:10;;;;;;;22.93;14.27;;;7.10;99.90;;;;;;5052941;28;20249;-69
2023/02/12 07:02:36;;;;;;;26.10;12.93;;;7.10;99.90;;;;;;5046341;28;20222;-68
2023/02/12 07:05:01;;;;;;;23.87;13.00;;;7.10;99.90;;;;;;5033437;28;20473;-68
2023/02/12 07:07:27;;;;;;;21.17;13.13;;;7.10;99.90;;;;;;5051291;28;20272;-69
2023/02/12 07:09:53;;;;;;;24.40;13.53;;;7.10;99.90;;;;;;5050650;28;20223;-69
2023/02/12 07:12:18;;;;;;;26.43;13.57;;;7.00;99.90;;;;;;5045712;28;20699;-69
2023/02/12 07:14:44;;;;;;;23.53;12.70;;;7.00;99.90;;;;;;5049380;28;20226;-69
2023/02/12 07:17:10;;;;;;;22.83;13.03;;;7.10;99.90;;;;;;5054860;28;20675;-69
2023/02/12 07:19:36;;;;;;;23.33;13.53;;;7.00;99.90;;;;;;5033193;28;20230;-70
2023/02/12 07:22:02;;;;;;;25.97;13.53;;;7.00;99.90;;;;;;5045855;28;20218;-69
2023/02/12 07:24:27;;;;;;;22.77;13.63;;;6.90;99.90;;;;;;5050599;28;20706;-69
2023/02/12 07:26:53;;;;;;;27.20;12.93;;;6.80;99.90;;;;;;5037679;28;20528;-69
2023/02/12 07:29:19;;;;;;;26.23;13.30;;;6.90;99.90;;;;;;5051879;28;20341;-69
2023/02/12 07:31:44;;;;;;;27.80;13.83;;;6.90;99.90;;;;;;5053247;28;20605;-70
2023/02/12 07:34:11;;;;;;;25.73;13.70;;;6.90;99.90;;;;;;5061015;28;20222;-69
2023/02/12 07:36:37;;;;;;;27.30;14.17;;;6.90;99.90;;;;;;5054380;28;20934;-69
2023/02/12 07:39:03;;;;;;;27.80;14.17;;;6.90;99.90;;;;;;5054477;28;20537;-68
2023/02/12 07:41:32;;;;;;;23.97;14.37;;;6.90;99.90;;;;;;5052967;28;20477;-70
2023/02/12 07:44:06;;;;;;;23.07;13.20;;;7.00;99.90;;;;;;5055441;28;20534;-69
2023/02/12 07:46:45;;;;;;;25.53;12.90;;;7.00;99.90;;;;;;5051298;28;20473;-68
2023/02/12 07:49:13;;;;;;;20.30;13.33;;;7.00;99.90;;;;;;5054556;28;21018;-68
2023/02/12 07:51:40;;;;;;;20.37;12.20;;;7.00;99.90;;;;;;5051652;28;20509;-69
2023/02/12 07:54:05;;;;;;;22.97;14.40;;;7.00;99.90;;;;;;5032125;28;20462;-68
2023/02/12 07:56:34;;;;;;;28.40;13.30;;;7.00;99.90;;;;;;5027539;28;20477;-69
2023/02/12 07:59:02;;;;;;;22.87;13.57;;;7.10;99.90;;;;;;5046840;28;20290;-69
2023/02/12 08:01:34;;;;;;;25.63;13.70;;;7.10;99.90;;;;;;5047354;28;20499;-69
2023/02/12 08:04:03;;;;;;;28.47;14.77;;;7.10;99.90;;;;;;5031933;28;20488;-69
2023/02/12 08:06:31;;;;;;;25.83;13.53;;;7.10;99.90;;;;;;5029609;28;20477;-69
2023/02/12 08:08:59;;;;;;;32.97;14.67;;;7.10;99.90;;;;;;5032231;28;20566;-68
2023/02/12 08:11:26;;;;;;;29.30;15.43;;;7.10;99.90;;;;;;5032950;28;20473;-69
2023/02/12 08:13:51;;;;;;;31.10;15.10;;;7.20;99.90;;;;;;5056562;28;20493;-68
2023/02/12 08:16:21;;;;;;;23.80;13.77;;;7.10;99.90;;;;;;5051799;28;20481;-68
2023/02/12 08:18:47;;;;;;;27.27;14.10;;;7.10;99.90;;;;;;5057701;28;20280;-68
2023/02/12 08:21:16;;;;;;;24.50;14.33;;;7.20;99.90;;;;;;5047929;28;20457;-68
2023/02/12 08:23:42;;;;;;;27.97;14.97;;;7.20;99.90;;;;;;5036652;28;20831;-69
2023/02/12 08:26:28;;;;;;;29.67;15.50;;;7.20;99.90;;;;;;5050867;28;20574;-70
2023/02/12 08:28:55;;;;;;;22.40;13.60;;;7.20;99.90;;;;;;5045554;28;20496;-69
2023/02/12 08:31:24;;;;;;;24.90;13.83;;;7.20;99.90;;;;;;5048110;28;20484;-70
2023/02/12 08:33:51;;;;;;;28.30;14.43;;;7.20;99.90;;;;;;5037323;28;20496;-70
2023/02/12 08:36:22;;;;;;;23.40;13.90;;;7.20;99.90;;;;;;5051265;28;20476;-70
2023/02/12 08:38:48;;;;;;;25.53;13.93;;;7.20;99.90;;;;;;5052923;28;20464;-69
2023/02/12 08:41:20;;;;;;;26.77;13.87;;;7.20;99.90;;;;;;5054506;28;20582;-70
2023/02/12 08:43:46;;;;;;;26.03;14.20;;;7.20;99.90;;;;;;5049534;28;20241;-70
2023/02/12 08:46:13;;;;;;;30.47;16.60;;;7.20;99.90;;;;;;5051105;28;20483;-69
2023/02/12 08:48:40;;;;;;;25.20;12.93;;;7.20;99.90;;;;;;5047010;28;20225;-70
2023/02/12 08:51:12;;;;;;;26.73;13.60;;;7.30;99.90;;;;;;5047550;28;20479;-70
2023/02/12 08:53:40;;;;;;;36.47;15.87;;;7.30;99.90;;;;;;5027312;28;20477;-71
2023/02/12 08:56:06;;;;;;;25.47;14.73;;;7.30;99.90;;;;;;5041698;28;20542;-70
2023/02/12 08:58:33;;;;;;;31.00;14.60;;;7.30;99.90;;;;;;5031767;28;20478;-70
2023/02/12 09:00:58;;;;;;;35.33;15.77;;;7.30;99.90;;;;;;5028010;28;20562;-70
2023/02/12 09:03:24;;;;;;;32.27;16.30;;;7.30;99.90;;;;;;5048165;28;20536;-70
2023/02/12 09:05:50;;;;;;;29.50;14.50;;;7.30;99.90;;;;;;5028741;28;20228;-70
2023/02/12 09:08:16;;;;;;;29.30;15.97;;;7.30;99.90;;;;;;5042561;28;20226;-69
2023/02/12 09:10:42;;;;;;;24.50;13.70;;;7.30;99.90;;;;;;5045895;28;20306;-69
2023/02/12 09:13:09;;;;;;;30.90;14.83;;;7.30;99.90;;;;;;5043338;28;20226;-70
2023/02/12 09:15:39;;;;;;;27.90;14.50;;;7.40;99.90;;;;;;5043937;28;20473;-69
2023/02/12 09:18:05;;;;;;;28.17;13.07;;;7.40;99.90;;;;;;5044428;28;20516;-69
2023/02/12 09:20:31;;;;;;;27.73;14.20;;;7.40;99.90;;;;;;5043257;28;20468;-71
2023/02/12 09:22:58;;;;;;;25.00;13.90;;;7.40;99.90;;;;;;5041097;28;20221;-70
2023/02/12 09:25:24;;;;;;;28.27;13.27;;;7.40;99.90;;;;;;5047878;28;20527;-70
2023/02/12 09:27:50;;;;;;;27.50;13.83;;;7.40;99.90;;;;;;5048896;28;20532;-69
2023/02/12 09:30:16;;;;;;;28.10;15.57;;;7.40;99.90;;;;;;5049588;28;20475;-71
2023/02/12 09:32:42;;;;;;;22.27;13.80;;;7.40;99.90;;;;;;5039668;28;20218;-70
2023/02/12 09:35:10;;;;;;;23.97;13.00;;;7.50;99.90;;;;;;5033318;28;20238;-70
2023/02/12 09:37:36;;;;;;;28.17;13.90;;;7.50;99.90;;;;;;5045013;28;20247;-70
2023/02/12 09:40:01;;;;;;;27.33;14.60;;;7.50;99.90;;;;;;5045614;28;20493;-70
2023/02/12 09:42:52;;;;;;;29.93;16.10;;;7.50;99.90;;;;;;5028043;28;20614;-70
2023/02/12 09:45:23;;;;;;;37.03;15.30;;;7.50;99.90;;;;;;5031508;28;20249;-70
2023/02/12 09:48:09;;;;;;;35.07;16.00;;;7.50;99.90;;;;;;5045446;28;20467;-69
2023/02/12 09:50:36;;;;;;;32.33;15.03;;;7.50;99.90;;;;;;5041249;28;20559;-69
2023/02/12 09:53:03;;;;;;;32.83;15.97;;;7.60;99.90;;;;;;5047888;28;20488;-70
2023/02/12 09:55:32;;;;;;;33.23;16.70;;;7.60;99.90;;;;;;5046480;28;20475;-70
2023/02/12 09:58:02;;;;;;;35.80;16.33;;;7.60;99.90;;;;;;5031924;28;21023;-70
2023/02/12 10:00:30;;;;;;;31.33;15.33;;;7.60;99.90;;;;;;5026100;28;20489;-71
2023/02/12 10:03:01;;;;;;;27.93;15.30;;;7.60;99.90;;;;;;5049203;28;20467;-70
2023/02/12 10:05:42;;;;;;;28.60;15.17;;;7.70;99.90;;;;;;5041367;28;20448;-70
2023/02/12 10:08:26;;;;;;;28.07;14.40;;;7.70;99.90;;;;;;5044004;28;20500;-71
2023/02/12 10:11:18;;;;;;;34.47;15.80;;;7.70;99.90;;;;;;5043761;28;20534;-69
2023/02/12 10:14:12;;;;;;;29.70;15.60;;;7.70;99.90;;;;;;5038096;28;20493;-70
2023/02/12 10:17:06;;;;;;;27.90;15.30;;;7.70;99.90;;;;;;5021918;28;20457;-69
2023/02/12 10:20:09;;;;;;;29.47;15.03;;;7.80;99.90;;;;;;5011278;28;20463;-71
2023/02/12 10:23:06;;;;;;;32.27;15.23;;;7.80;99.90;;;;;;5039960;28;20503;-70
2023/02/12 10:25:40;;;;;;;30.83;16.07;;;7.80;99.90;;;;;;5037368;28;20485;-71
2023/02/12 10:28:24;;;;;;;32.87;14.97;;;7.90;99.90;;;;;;5046500;28;20464;-71
2023/02/12 10:30:56;;;;;;;35.43;15.20;;;7.90;99.90;;;;;;5028956;28;20462;-70
2023/02/12 10:33:43;;;;;;;38.03;17.20;;;7.90;99.90;;;;;;5049465;28;20468;-71
2023/02/12 10:36:36;;;;;;;35.07;15.70;;;7.90;99.90;;;;;;5033488;28;20465;-70
2023/02/12 10:39:11;;;;;;;39.80;16.77;;;8.00;99.90;;;;;;5049472;28;20473;-71
2023/02/12 10:41:49;;;;;;;39.30;17.97;;;8.00;99.90;;;;;;5041978;28;20531;-69
2023/02/12 10:44:15;;;;;;;35.00;16.40;;;8.00;99.90;;;;;;5016948;28;20441;-70
2023/02/12 10:46:41;;;;;;;37.47;16.80;;;8.00;99.90;;;;;;5034818;28;20511;-69
2023/02/12 10:49:10;;;;;;;42.43;17.20;;;8.10;99.90;;;;;;5032993;28;20216;-71
2023/02/12 10:51:59;;;;;;;35.27;16.93;;;8.10;99.90;;;;;;5031853;28;20222;-70
2023/02/12 10:54:31;;;;;;;33.90;16.20;;;8.10;99.90;;;;;;5060850;28;20529;-71
2023/02/12 10:56:58;;;;;;;33.83;15.97;;;8.20;99.90;;;;;;5049921;28;20511;-69
2023/02/12 10:59:24;;;;;;;44.67;18.80;;;8.20;99.90;;;;;;5042971;28;20462;-70
2023/02/12 11:01:50;;;;;;;32.00;16.40;;;8.20;99.90;;;;;;5027599;28;20463;-70
2023/02/12 11:04:23;;;;;;;35.57;16.77;;;8.20;99.90;;;;;;5050017;28;20227;-70
2023/02/12 11:06:59;;;;;;;43.97;18.60;;;8.30;99.90;;;;;;5031667;28;20459;-70
2023/02/12 11:09:44;;;;;;;36.20;18.83;;;8.30;99.90;;;;;;5040222;28;20966;-70
2023/02/12 11:12:39;;;;;;;38.20;17.47;;;8.30;99.90;;;;;;5036641;28;20480;-71
2023/02/12 11:15:16;;;;;;;39.10;16.90;;;8.30;99.90;;;;;;5034959;28;20452;-70
2023/02/12 11:18:04;;;;;;;34.50;16.87;;;8.40;99.90;;;;;;5025169;28;20447;-70
2023/02/12 11:20:38;;;;;;;31.87;16.50;;;8.40;99.90;;;;;;5048145;28;20841;-70
2023/02/12 11:23:08;;;;;;;41.63;17.23;;;8.40;99.90;;;;;;5030122;28;20506;-70
2023/02/12 11:25:36;;;;;;;39.57;16.53;;;8.40;99.90;;;;;;5051681;28;20501;-71
2023/02/12 11:28:04;;;;;;;37.67;17.40;;;8.40;99.90;;;;;;5028331;28;20461;-70
2023/02/12 11:30:30;;;;;;;42.87;17.00;;;8.50;99.90;;;;;;5049454;28;20457;-71
2023/02/12 11:33:35;;;;;;;32.67;16.00;;;8.50;99.90;;;;;;5050570;28;20999;-70
2023/02/12 11:36:24;;;;;;;34.63;16.03;;;8.50;99.90;;;;;;4974406;28;20473;-71
2023/02/12 11:38:55;;;;;;;34.43;15.53;;;8.60;99.90;;;;;;4975447;28;20531;-68
2023/02/12 11:41:33;;;;;;;35.10;17.47;;;8.60;99.90;;;;;;5028807;28;20450;-70
2023/02/12 11:43:59;;;;;;;38.10;15.77;;;8.60;99.90;;;;;;5044100;28;20471;-69
2023/02/12 11:46:26;;;;;;;32.50;15.30;;;8.70;99.90;;;;;;5027252;28;20488;-71
2023/02/12 11:48:55;;;;;;;33.60;16.27;;;8.70;99.90;;;;;;5036025;28;20445;-71
2023/02/12 11:51:25;;;;;;;36.43;17.47;;;8.70;99.90;;;;;;5043808;28;20475;-72
2023/02/12 11:53:54;;;;;;;39.30;17.80;;;8.70;99.90;;;;;;5041942;28;20564;-71
2023/02/12 11:56:20;;;;;;;35.47;16.80;;;8.70;99.90;;;;;;5039408;28;20493;-69
2023/02/12 11:58:50;;;;;;;35.50;19.00;;;8.80;99.90;;;;;;5040778;28;20535;-70
2023/02/12 12:01:20;;;;;;;46.00;23.37;;;8.80;99.90;;;;;;5026220;28;20842;-70
2023/02/12 12:04:07;;;;;;;47.73;22.67;;;8.90;99.90;;;;;;5025795;28;20994;-70
2023/02/12 12:06:45;;;;;;;53.80;21.80;;;8.90;99.90;;;;;;5044412;28;20482;-71
2023/02/12 12:09:35;;;;;;;48.90;21.50;;;8.90;99.90;;;;;;5046522;28;20476;-70
2023/02/12 12:12:04;;;;;;;45.10;20.10;;;9.00;99.90;;;;;;5055099;28;20484;-71
2023/02/12 12:21:35;;;;;;;35.00;19.60;;;9.00;99.90;;;;;;4982784;28;20552;-71
2023/02/12 12:24:16;;;;;;;37.17;17.90;;;9.10;99.90;;;;;;5040040;28;20499;-71
2023/02/12 12:26:48;;;;;;;31.37;16.57;;;9.10;99.90;;;;;;5034054;28;20573;-70
2023/02/12 12:29:26;;;;;;;35.73;18.47;;;9.10;99.90;;;;;;5029181;28;20541;-70
2023/02/12 12:31:58;;;;;;;32.80;16.70;;;9.10;99.90;;;;;;5023533;28;20461;-70
2023/02/12 12:34:26;;;;;;;31.43;17.43;;;9.20;99.90;;;;;;5031201;28;20473;-71
2023/02/12 12:37:04;;;;;;;41.27;22.60;;;9.20;99.90;;;;;;5040318;28;20487;-70
2023/02/12 12:40:05;;;;;;;41.40;20.83;;;9.20;99.90;;;;;;5040277;28;20875;-71
2023/02/12 12:42:54;;;;;;;34.07;18.30;;;9.20;99.90;;;;;;5018741;28;20915;-70
2023/02/12 12:45:50;;;;;;;29.13;16.77;;;9.20;99.90;;;;;;5024873;28;20458;-71
2023/02/12 12:48:47;;;;;;;30.90;16.23;;;9.30;99.90;;;;;;5023606;28;20508;-70
2023/02/12 12:51:19;;;;;;;37.37;16.70;;;9.30;99.90;;;;;;5014345;28;20481;-70
2023/02/12 12:54:24;;;;;;;37.20;17.70;;;9.30;99.90;;;;;;5018230;28;20463;-70
2023/02/12 12:57:15;;;;;;;35.50;17.13;;;9.30;99.90;;;;;;5037871;28;20981;-70
2023/02/12 12:59:56;;;;;;;31.60;17.00;;;9.40;99.90;;;;;;5027270;28;20462;-70
2023/02/12 13:02:51;;;;;;;32.43;17.00;;;9.40;99.90;;;;;;5031740;28;20588;-70
2023/02/12 13:05:39;;;;;;;32.77;15.27;;;9.40;99.90;;;;;;5023811;28;20482;-71
2023/02/12 13:08:40;;;;;;;31.17;15.07;;;9.50;99.90;;;;;;5034940;28;20470;-70